Frankfort, MI

7:17 PM EDT on August 22, 2017 (GMT -0400)
Frankfort | | Change Station
Active Advisory: Beach Hazard Statement

Elev 633 ft 44.63 °N, 86.20 °W | Updated 23 minutes ago

Scattered Clouds
Scattered Clouds
72 °F
Feels Like 72 °F
N
15
Wind Variable Wind from WNW
Gusts 20 mph

Today
High -- | Low -- °F
--% Chance of Precip.
Yesterday
High -- | Low -- °F
Precip. -- in
Pressure 29.85 in
Visibility 10.0 miles
Clouds Scattered Clouds 8000 ft
Dew Point 54 °F
Humidity 53%
Rainfall 0.00 in
Snow Depth Not available.
6:55 AM 8:38 PM
New Moon, 2% visible
METAR KFKS 222254Z AUTO 30013G17KT 10SM SCT080 22/12 A2985 RMK AO2 T02220123
Pressure 29.85 in
Visibility 10.0 miles
Clouds Scattered Clouds 8000 ft
Dew Point 54 °F
Humidity 53%
Rainfall 0.00 in
Snow Depth Not available.
6:55 AM 8:38 PM
New Moon, 2% visible
METAR KFKS 222254Z AUTO 30013G17KT 10SM SCT080 22/12 A2985 RMK AO2 T02220123

Get Your Daily Forecast Email!

Thanks for signing up!

Be on the lookout for a verification email in your inbox.

You'll start receiving severe weather alerts in your inbox..

×

10-Day Weather Forecast

Almanac

Astronomy

Aug. 22, 2017 Rise Set
Actual Time
Civil Twilight
Nautical Twilight
Astronomical Twilight
Moon
Length of Visible Light
Length of Day
Tomorrow will be .
, % of the Moon is Illuminated

Today's Extremes

State Highs State Lows

Community

WunderPhotos

Category 6

Welcome to Category 6. This is the collective home for Weather Underground's featured writeups by Dr. Jeff Masters (right), Bob Henson (left), Chris Burt, and other regular contributors.

Nearby

Air Quality

  Air Quality AQ Index Pollutant
Not available.

Snow Depth

Station Depth Elevation

Earthquake Activity

City Distance Mag. Time & Date
Minimum magnitude displayed is 2.5.

Coastal Water Temperatures

Place Temperature

Stations

Nearby Weather Stations

Station Location Temp. Windchill Dew Point Humidity Wind Precip. Elev Updated Type
                   

Watches & Warnings

Beach Hazard Statement
Issued: 3:33 PM EDT Aug. 22, 2017 – National Weather Service

... Beach hazards statement now in effect through Wednesday
afternoon...

* hazards... strong currents and high waves.

* Timing... today and tonight

* location... Lake Michigan beaches of northwest lower Michigan.

Precautionary/preparedness actions...

A high swim risk means life threatening waves and currents are
expected. Stay out of the water and stay away from dangerous
areas like piers and breakwalls.


Jk